KSFO

San Francisco International Airport

ICAO Code KSFO
IATA Code SFO
Name San Francisco International Airport
Location San Francisco, California, US
Elevation 13 Feet / 4 Meters
Latitude 37.61899948
Longitude -122.37500000
METAR KSFO 240556Z 28006KT 10SM CLR 11/04 A3024 RMK AO2 SLP239 T01110039 10172 20106 53002
Extra information Display Charts and CFS
Display NOTAMS
Runway Length Width Surface Elevation
01L 7500 ft 200 ft ASP 10 ft
01R 8648 ft 200 ft ASP 12 ft
10L 11870 ft 200 ft ASP 5 ft
10R 10602 ft 200 ft ASP 6 ft
19R 7500 ft 200 ft ASP 9 ft
19L 8648 ft 200 ft ASP 10 ft
28R 11870 ft 200 ft ASP 13 ft
28L 10602 ft 200 ft ASP 13 ft